createdAt,value
2019-04-21T00:01:24.251Z,25.20
2019-04-21T00:04:02.778Z,25.20
2019-04-21T00:06:51.075Z,25.20
2019-04-21T00:09:20.441Z,25.20
2019-04-21T00:11:54.175Z,25.20
2019-04-21T00:14:11.346Z,25.20
2019-04-21T00:16:36.836Z,25.20
2019-04-21T00:19:09.325Z,25.20
2019-04-21T00:21:40.402Z,25.20
2019-04-21T00:24:23.940Z,25.20
2019-04-21T00:27:03.715Z,25.20
2019-04-21T00:29:34.233Z,25.20
2019-04-21T00:32:00.318Z,25.20
2019-04-21T00:34:17.491Z,25.20
2019-04-21T00:36:56.159Z,25.20
2019-04-21T00:39:50.948Z,25.20
2019-04-21T00:42:09.871Z,25.10
2019-04-21T00:44:30.818Z,25.20
2019-04-21T00:47:01.791Z,25.20
2019-04-21T00:49:35.727Z,25.10
2019-04-21T00:52:33.378Z,25.20
2019-04-21T00:55:09.683Z,25.10
2019-04-21T00:57:38.882Z,25.20
2019-04-21T01:00:10.167Z,25.10
2019-04-21T01:02:41.399Z,25.20
2019-04-21T01:05:04.862Z,25.20
2019-04-21T01:07:37.021Z,25.20
2019-04-21T01:09:58.986Z,25.10
2019-04-21T01:12:38.013Z,25.20
2019-04-21T01:15:10.842Z,25.10
2019-04-21T01:17:40.638Z,25.10
2019-04-21T01:20:03.977Z,25.10
2019-04-21T01:22:19.846Z,25.20
2019-04-21T01:25:01.389Z,25.20
2019-04-21T01:27:31.958Z,25.10
2019-04-21T01:30:15.019Z,25.20
2019-04-21T01:32:45.202Z,25.10
2019-04-21T01:35:15.044Z,25.10
2019-04-21T01:37:49.782Z,25.10
2019-04-21T01:40:27.622Z,25.10
2019-04-21T01:42:45.518Z,25.10
2019-04-21T01:45:15.720Z,25.10
2019-04-21T01:47:49.056Z,25.20
2019-04-21T01:50:19.801Z,25.20
2019-04-21T01:52:57.453Z,25.10
2019-04-21T01:55:35.717Z,25.20
2019-04-21T01:58:09.754Z,25.10
2019-04-21T02:00:48.296Z,25.10
2019-04-21T02:03:42.978Z,25.10
2019-04-21T02:05:59.982Z,25.10
2019-04-21T02:08:23.175Z,25.10
2019-04-21T02:11:03.458Z,25.10
2019-04-21T02:13:23.153Z,25.10
2019-04-21T02:16:05.461Z,25.10
2019-04-21T02:18:27.571Z,25.10
2019-04-21T02:20:48.323Z,25.10
2019-04-21T02:23:42.954Z,25.10
2019-04-21T02:26:08.137Z,25.10
2019-04-21T02:28:45.109Z,25.10
2019-04-21T02:31:22.612Z,25.10
2019-04-21T02:39:06.149Z,25.10
2019-04-21T02:41:18.305Z,25.10
2019-04-21T02:43:56.051Z,25.10
2019-04-21T02:46:23.872Z,25.10
2019-04-21T02:48:55.430Z,25.10
2019-04-21T02:51:28.169Z,25.10
2019-04-21T02:54:28.609Z,25.10
2019-04-21T02:56:27.334Z,25.10
2019-04-21T02:59:02.977Z,25.10
2019-04-21T03:01:41.343Z,25.00
2019-04-21T03:04:00.083Z,25.10
2019-04-21T03:07:07.782Z,25.10
2019-04-21T03:09:30.957Z,25.10
2019-04-21T03:12:05.388Z,25.10
2019-04-21T03:16:57.822Z,25.10
2019-04-21T03:19:41.660Z,25.10
2019-04-21T03:22:07.132Z,25.10
2019-04-21T03:24:48.986Z,25.10
2019-04-21T03:34:56.881Z,25.10
2019-04-21T03:37:07.859Z,25.00
2019-04-21T03:39:37.192Z,25.00
2019-04-21T03:42:19.848Z,25.10
2019-04-21T03:44:40.073Z,25.10
2019-04-21T03:47:20.774Z,25.10
2019-04-21T03:52:27.980Z,25.00
2019-04-21T03:58:10.713Z,25.10
2019-04-21T04:00:42.474Z,25.10
2019-04-21T04:03:12.963Z,25.00
2019-04-21T04:13:51.120Z,25.00
2019-04-21T04:16:05.830Z,25.00
2019-04-21T04:18:46.723Z,25.00
2019-04-21T04:21:13.313Z,25.00
2019-04-21T04:23:47.385Z,25.00
2019-04-21T04:28:49.392Z,25.00
2019-04-21T04:31:25.996Z,25.00
2019-04-21T04:33:55.614Z,25.00
2019-04-21T04:39:17.026Z,25.00
2019-04-21T04:41:36.162Z,25.00
2019-04-21T04:44:03.315Z,25.00
2019-04-21T04:46:33.451Z,25.00
2019-04-21T04:49:10.632Z,25.00
2019-04-21T04:51:48.103Z,25.00
2019-04-21T04:53:51.180Z,25.00
2019-04-21T04:59:22.640Z,25.00
2019-04-21T05:01:42.752Z,25.00
2019-04-21T05:04:07.588Z,25.00
2019-04-21T05:09:13.100Z,25.00
2019-04-21T05:14:25.103Z,25.00
2019-04-21T05:16:55.729Z,25.00
2019-04-21T05:21:42.049Z,25.00
2019-04-21T05:24:04.134Z,25.00
2019-04-21T05:26:33.376Z,25.00
2019-04-21T05:29:00.663Z,25.00
2019-04-21T05:31:44.662Z,25.00
2019-04-21T05:34:18.567Z,25.00
2019-04-21T05:36:53.918Z,25.00
2019-04-21T05:39:23.114Z,25.00
2019-04-21T05:41:48.889Z,25.00
2019-04-21T05:44:35.553Z,25.00
2019-04-21T05:47:15.922Z,25.00
2019-04-21T05:49:46.618Z,25.00
2019-04-21T05:52:08.241Z,25.10
2019-04-21T05:54:57.296Z,25.00
2019-04-21T05:57:15.011Z,25.00
2019-04-21T05:59:51.644Z,25.00
2019-04-21T06:02:23.232Z,25.00
2019-04-21T06:07:23.047Z,25.00
2019-04-21T06:09:56.895Z,25.00
2019-04-21T06:12:29.898Z,25.10
2019-04-21T06:15:02.635Z,25.00
2019-04-21T06:17:36.704Z,25.10
2019-04-21T06:20:00.925Z,25.10
2019-04-21T06:22:27.409Z,25.00
2019-04-21T06:27:36.295Z,25.10
2019-04-21T06:30:00.034Z,25.10
2019-04-21T06:35:12.726Z,25.00
2019-04-21T06:37:47.422Z,25.10
2019-04-21T06:42:43.254Z,25.10
2019-04-21T06:45:12.834Z,25.10
2019-04-21T06:47:54.957Z,25.00
2019-04-21T06:50:20.339Z,25.00
2019-04-21T06:55:13.865Z,25.10
2019-04-21T06:57:44.418Z,25.00
2019-04-21T07:00:11.748Z,25.00
2019-04-21T07:02:54.612Z,25.00
2019-04-21T07:05:22.804Z,25.10
2019-04-21T07:08:10.955Z,25.10
2019-04-21T07:10:22.734Z,25.10
2019-04-21T07:12:51.343Z,25.10
2019-04-21T07:15:28.427Z,25.10
2019-04-21T07:17:58.039Z,25.10
2019-04-21T07:20:28.956Z,25.10
2019-04-21T07:23:07.006Z,25.10
2019-04-21T07:25:34.265Z,25.10
2019-04-21T07:28:03.000Z,25.10
2019-04-21T07:33:21.972Z,25.10
2019-04-21T07:35:31.809Z,25.10
2019-04-21T07:38:04.357Z,25.10
2019-04-21T07:40:33.686Z,25.10
2019-04-21T07:43:03.799Z,25.10
2019-04-21T07:45:35.145Z,25.10
2019-04-21T07:48:09.338Z,25.10
2019-04-21T07:50:46.890Z,25.10
2019-04-21T07:53:21.149Z,25.10
2019-04-21T07:55:32.522Z,25.10
2019-04-21T07:58:22.688Z,25.10
2019-04-21T08:01:00.970Z,25.10
2019-04-21T08:03:30.036Z,25.10
2019-04-21T08:05:58.562Z,25.10
2019-04-21T08:08:26.382Z,25.10
2019-04-21T08:11:04.522Z,25.10
2019-04-21T08:13:41.601Z,25.10
2019-04-21T08:18:39.722Z,25.10
2019-04-21T08:21:05.899Z,25.00
2019-04-21T08:23:40.189Z,25.10
2019-04-21T08:26:07.737Z,25.00
2019-04-21T08:28:47.487Z,25.00
2019-04-21T08:31:14.584Z,25.00
2019-04-21T08:33:48.566Z,25.10
2019-04-21T08:36:28.434Z,25.10
2019-04-21T08:38:48.040Z,25.10
2019-04-21T08:41:18.426Z,25.10
2019-04-21T08:44:01.661Z,25.10
2019-04-21T08:46:20.127Z,25.10
2019-04-21T08:48:55.494Z,25.00
2019-04-21T08:51:27.678Z,25.00
2019-04-21T08:53:56.386Z,25.10
2019-04-21T08:56:41.365Z,25.10
2019-04-21T08:59:07.479Z,25.00
2019-04-21T09:01:36.637Z,25.10
2019-04-21T09:04:11.682Z,25.10
2019-04-21T09:06:55.696Z,25.00
2019-04-21T09:09:10.976Z,25.00
2019-04-21T09:11:42.876Z,25.00
2019-04-21T09:14:13.128Z,25.00
2019-04-21T09:16:39.733Z,25.00
2019-04-21T09:19:11.773Z,25.00
2019-04-21T09:24:16.665Z,25.10
2019-04-21T09:26:46.181Z,25.00
2019-04-21T09:29:10.934Z,25.00
2019-04-21T09:31:37.448Z,25.00
2019-04-21T09:34:04.586Z,25.00
2019-04-21T09:36:38.942Z,25.10
2019-04-21T09:39:12.988Z,25.10
2019-04-21T09:41:39.088Z,25.00
2019-04-21T09:44:17.286Z,25.00
2019-04-21T09:46:46.922Z,25.00
2019-04-21T09:49:13.592Z,25.00
2019-04-21T09:51:43.622Z,25.00
2019-04-21T09:54:20.754Z,25.00
2019-04-21T09:56:52.355Z,25.00
2019-04-21T09:59:23.079Z,25.00
2019-04-21T10:02:01.477Z,25.00
2019-04-21T10:04:16.986Z,25.00
2019-04-21T10:06:47.545Z,25.00
2019-04-21T10:09:21.526Z,25.10
2019-04-21T10:11:50.497Z,25.10
2019-04-21T10:14:19.849Z,25.10
2019-04-21T10:16:54.410Z,25.00
2019-04-21T10:19:25.508Z,25.10
2019-04-21T10:21:56.558Z,25.00
2019-04-21T10:24:28.420Z,25.10
2019-04-21T10:26:58.848Z,25.10
2019-04-21T10:29:31.269Z,25.10
2019-04-21T10:31:59.611Z,25.10
2019-04-21T10:34:29.385Z,25.10
2019-04-21T10:36:58.719Z,25.10
2019-04-21T10:39:29.415Z,25.10
2019-04-21T10:41:59.605Z,25.10
2019-04-21T10:44:29.420Z,25.20
2019-04-21T10:46:58.787Z,25.20
2019-04-21T10:49:28.681Z,25.20
2019-04-21T10:51:59.073Z,25.20
2019-04-21T10:54:47.821Z,25.20
2019-04-21T10:57:02.030Z,25.20
2019-04-21T10:59:33.223Z,25.20
2019-04-21T11:02:05.135Z,25.30
2019-04-21T11:04:37.392Z,25.30
2019-04-21T11:07:27.516Z,25.30
2019-04-21T11:09:56.085Z,25.30
2019-04-21T11:12:25.868Z,25.40
2019-04-21T11:14:55.251Z,25.40
2019-04-21T11:17:25.845Z,25.40
2019-04-21T11:19:55.245Z,25.40
2019-04-21T11:22:25.074Z,25.40
2019-04-21T11:24:56.577Z,25.50
2019-04-21T11:27:26.817Z,25.50
2019-04-21T11:29:56.108Z,25.50
2019-04-21T11:32:25.615Z,25.50
2019-04-21T11:34:54.955Z,25.50
2019-04-21T11:37:28.182Z,25.60
2019-04-21T11:40:05.484Z,25.60
2019-04-21T11:42:33.536Z,25.60
2019-04-21T11:45:04.136Z,25.70
2019-04-21T11:47:38.519Z,25.70
2019-04-21T11:50:07.937Z,25.70
2019-04-21T11:52:37.180Z,25.70
2019-04-21T11:55:06.848Z,25.70
2019-04-21T11:57:40.181Z,25.70
2019-04-21T12:00:07.215Z,25.70
2019-04-21T12:02:37.378Z,25.80
2019-04-21T12:05:07.574Z,25.80
2019-04-21T12:07:37.618Z,25.80
2019-04-21T12:10:07.046Z,25.80
2019-04-21T12:12:37.145Z,25.90
2019-04-21T12:15:08.022Z,26.00
2019-04-21T12:17:37.993Z,26.00
2019-04-21T12:20:08.655Z,26.00
2019-04-21T12:22:39.112Z,26.00
2019-04-21T12:25:11.249Z,26.00
2019-04-21T12:27:41.659Z,26.10
2019-04-21T12:30:13.566Z,26.10
2019-04-21T12:32:48.465Z,26.20
2019-04-21T12:35:19.599Z,26.10
2019-04-21T12:37:49.019Z,26.20
2019-04-21T12:40:18.710Z,26.20
2019-04-21T12:42:48.391Z,26.20
2019-04-21T12:45:17.766Z,26.20
2019-04-21T12:47:49.938Z,26.30
2019-04-21T12:50:17.970Z,26.30
2019-04-21T12:52:47.471Z,26.30
2019-04-21T12:55:17.935Z,26.40
2019-04-21T12:57:47.649Z,26.40
2019-04-21T13:00:18.823Z,26.40
2019-04-21T13:02:48.207Z,26.40
2019-04-21T13:05:19.958Z,26.40
2019-04-21T13:07:49.183Z,26.50
2019-04-21T13:10:18.616Z,26.50
2019-04-21T13:12:48.026Z,26.50
2019-04-21T13:15:17.849Z,26.60
2019-04-21T13:17:48.206Z,26.60
2019-04-21T13:20:17.460Z,26.60
2019-04-21T13:22:48.085Z,26.60
2019-04-21T13:25:18.100Z,26.60
2019-04-21T13:27:49.105Z,26.60
2019-04-21T13:30:18.466Z,26.60
2019-04-21T13:32:49.177Z,26.70
2019-04-21T13:35:19.125Z,26.70
2019-04-21T13:37:50.541Z,26.70
2019-04-21T13:40:50.507Z,26.70
2019-04-21T13:43:07.842Z,26.70
2019-04-21T13:45:35.954Z,26.70
2019-04-21T13:48:06.711Z,26.80
2019-04-21T13:50:37.214Z,26.70
2019-04-21T13:53:06.954Z,26.80
2019-04-21T13:55:37.066Z,26.80
2019-04-21T13:58:08.416Z,26.80
2019-04-21T14:00:38.026Z,26.90
2019-04-21T14:03:07.336Z,26.90
2019-04-21T14:05:36.584Z,26.90
2019-04-21T14:08:07.294Z,26.90
2019-04-21T14:10:37.671Z,26.90
2019-04-21T14:13:08.650Z,26.90
2019-04-21T14:15:38.014Z,26.90
2019-04-21T14:18:08.860Z,27.00
2019-04-21T14:20:39.462Z,27.00
2019-04-21T14:23:18.874Z,27.00
2019-04-21T14:25:39.794Z,27.00
2019-04-21T14:28:10.185Z,27.00
2019-04-21T14:30:40.720Z,27.00
2019-04-21T14:33:10.095Z,27.00
2019-04-21T14:35:40.934Z,27.00
2019-04-21T14:38:10.857Z,27.10
2019-04-21T14:40:40.203Z,27.10
2019-04-21T14:43:10.165Z,27.10
2019-04-21T14:45:54.493Z,27.10
2019-04-21T14:48:43.075Z,27.10
2019-04-21T14:51:32.486Z,27.10
2019-04-21T14:54:03.725Z,27.10
2019-04-21T14:56:33.470Z,27.10
2019-04-21T14:59:05.403Z,27.10
2019-04-21T15:01:34.218Z,27.10
2019-04-21T15:04:03.794Z,27.20
2019-04-21T15:06:33.720Z,27.20
2019-04-21T15:09:04.997Z,27.20
2019-04-21T15:11:35.924Z,27.20
2019-04-21T15:14:06.103Z,27.20
2019-04-21T15:16:36.642Z,27.20
2019-04-21T15:19:06.557Z,27.20
2019-04-21T15:21:35.872Z,27.20
2019-04-21T15:24:06.415Z,27.20
2019-04-21T15:26:35.986Z,27.20
2019-04-21T15:29:06.701Z,27.20
2019-04-21T15:31:39.650Z,27.20
2019-04-21T15:34:07.384Z,27.20
2019-04-21T15:36:37.833Z,27.20
2019-04-21T15:39:09.845Z,27.20
2019-04-21T15:41:40.655Z,27.20
2019-04-21T15:44:10.099Z,27.20
2019-04-21T15:46:39.901Z,27.20
2019-04-21T15:49:09.325Z,27.20
2019-04-21T15:51:39.960Z,27.20
2019-04-21T15:54:09.321Z,27.20
2019-04-21T15:56:42.950Z,27.20
2019-04-21T15:59:24.335Z,27.20
2019-04-21T16:01:58.779Z,27.10
2019-04-21T16:04:28.565Z,27.20
2019-04-21T16:06:59.380Z,27.20
2019-04-21T16:09:30.654Z,27.20
2019-04-21T16:12:00.024Z,27.20
2019-04-21T16:14:29.419Z,27.10
2019-04-21T16:16:59.167Z,27.20
2019-04-21T16:19:29.279Z,27.10
2019-04-21T16:21:59.038Z,27.10
2019-04-21T16:24:28.398Z,27.10
2019-04-21T16:27:01.713Z,27.10
2019-04-21T16:29:29.227Z,27.00
2019-04-21T16:31:59.680Z,27.00
2019-04-21T16:34:37.866Z,27.00
2019-04-21T16:37:01.405Z,27.10
2019-04-21T16:39:31.567Z,27.00
2019-04-21T16:42:02.466Z,27.00
2019-04-21T16:44:31.821Z,27.00
2019-04-21T16:47:01.395Z,27.00
2019-04-21T16:49:31.747Z,27.00
2019-04-21T16:52:12.118Z,26.90
2019-04-21T16:54:44.100Z,26.90
2019-04-21T16:57:17.960Z,26.80
2019-04-21T16:59:50.676Z,26.80
2019-04-21T17:02:20.642Z,26.70
2019-04-21T17:04:52.112Z,26.70
2019-04-21T17:07:22.030Z,26.70
2019-04-21T17:09:52.632Z,26.70
2019-04-21T17:12:22.739Z,26.60
2019-04-21T17:15:07.475Z,26.60
2019-04-21T17:17:43.111Z,26.60
2019-04-21T17:20:10.146Z,26.60
2019-04-21T17:22:25.900Z,26.60
2019-04-21T17:24:56.030Z,26.60
2019-04-21T17:27:25.446Z,26.60
2019-04-21T17:29:54.801Z,26.60
2019-04-21T17:32:25.069Z,26.60
2019-04-21T17:34:56.149Z,26.60
2019-04-21T17:37:27.301Z,26.60
2019-04-21T17:39:58.759Z,26.60
2019-04-21T17:42:37.406Z,26.60
2019-04-21T17:44:59.502Z,26.50
2019-04-21T17:47:41.471Z,26.50
2019-04-21T17:50:20.664Z,26.50
2019-04-21T17:53:08.759Z,26.50
2019-04-21T17:55:40.157Z,26.50
2019-04-21T17:58:21.966Z,26.40
2019-04-21T18:01:10.349Z,26.40
2019-04-21T18:03:49.976Z,26.40
2019-04-21T18:05:59.594Z,26.40
2019-04-21T18:08:37.139Z,26.30
2019-04-21T18:10:57.948Z,26.40
2019-04-21T18:13:21.320Z,26.30
2019-04-21T18:16:02.922Z,26.30
2019-04-21T18:18:20.950Z,26.30
2019-04-21T18:20:55.205Z,26.30
2019-04-21T18:23:39.669Z,26.30
2019-04-21T18:26:05.832Z,26.30
2019-04-21T18:28:30.480Z,26.30
2019-04-21T18:31:02.409Z,26.30
2019-04-21T18:33:35.509Z,26.20
2019-04-21T18:36:06.551Z,26.20
2019-04-21T18:39:00.019Z,26.20
2019-04-21T18:41:17.379Z,26.20
2019-04-21T18:44:16.673Z,26.20
2019-04-21T18:46:46.239Z,26.20
2019-04-21T18:49:06.269Z,26.20
2019-04-21T18:52:02.227Z,26.20
2019-04-21T18:54:41.333Z,26.20
2019-04-21T18:57:05.411Z,26.20
2019-04-21T18:59:33.947Z,26.10
2019-04-21T19:02:04.222Z,26.10
2019-04-21T19:04:33.115Z,26.10
2019-04-21T19:07:12.943Z,26.10
2019-04-21T19:10:08.230Z,26.10
2019-04-21T19:12:35.410Z,26.20
2019-04-21T19:14:51.048Z,26.10
2019-04-21T19:20:01.938Z,26.10
2019-04-21T19:22:30.217Z,26.10
2019-04-21T19:24:59.384Z,26.10
2019-04-21T19:27:26.299Z,26.00
2019-04-21T19:30:08.567Z,26.00
2019-04-21T19:32:29.045Z,26.00
2019-04-21T19:34:47.401Z,25.90
2019-04-21T19:37:20.162Z,26.00
2019-04-21T19:40:00.518Z,25.90
2019-04-21T19:42:30.633Z,26.00
2019-04-21T19:45:05.934Z,25.90
2019-04-21T19:47:38.937Z,25.90
2019-04-21T19:50:11.187Z,25.90
2019-04-21T19:52:34.514Z,25.90
2019-04-21T19:54:52.636Z,25.90
2019-04-21T19:57:22.995Z,25.90
2019-04-21T19:59:55.910Z,25.90
2019-04-21T20:02:24.578Z,25.90
2019-04-21T20:05:01.370Z,25.90
2019-04-21T20:07:41.478Z,25.90
2019-04-21T20:10:20.865Z,25.90
2019-04-21T20:12:47.513Z,25.90
2019-04-21T20:15:28.444Z,25.80
2019-04-21T20:17:42.235Z,25.80
2019-04-21T20:20:00.459Z,25.80
2019-04-21T20:22:35.003Z,25.80
2019-04-21T20:25:07.900Z,25.80
2019-04-21T20:27:43.070Z,25.80
2019-04-21T20:30:21.815Z,25.80
2019-04-21T20:32:56.581Z,25.80
2019-04-21T20:35:32.391Z,25.80
2019-04-21T20:37:56.297Z,25.80
2019-04-21T20:40:19.667Z,25.80
2019-04-21T20:43:07.172Z,25.80
2019-04-21T20:45:34.526Z,25.80
2019-04-21T20:47:48.971Z,25.80
2019-04-21T20:50:29.819Z,25.80
2019-04-21T20:53:08.516Z,25.80
2019-04-21T20:55:29.254Z,25.70
2019-04-21T20:57:58.022Z,25.80
2019-04-21T21:00:39.238Z,25.80
2019-04-21T21:03:07.080Z,25.70
2019-04-21T21:05:30.479Z,25.70
2019-04-21T21:08:13.618Z,25.80
2019-04-21T21:10:38.576Z,25.70
2019-04-21T21:13:20.455Z,25.70
2019-04-21T21:15:44.760Z,25.70
2019-04-21T21:18:26.190Z,25.70
2019-04-21T21:20:43.049Z,25.70
2019-04-21T21:23:09.996Z,25.70
2019-04-21T21:26:04.413Z,25.70
2019-04-21T21:28:09.216Z,25.70
2019-04-21T21:30:37.531Z,25.70
2019-04-21T21:33:17.136Z,25.70
2019-04-21T21:35:41.112Z,25.70
2019-04-21T21:38:23.639Z,25.70
2019-04-21T21:40:46.578Z,25.70
2019-04-21T21:43:08.257Z,25.70
2019-04-21T21:45:42.187Z,25.70
2019-04-21T21:48:21.817Z,25.70
2019-04-21T21:50:46.025Z,25.70
2019-04-21T21:53:14.478Z,25.70
2019-04-21T21:55:40.567Z,25.70
2019-04-21T21:58:11.951Z,25.70
2019-04-21T22:00:46.411Z,25.70
2019-04-21T22:03:23.361Z,25.70
2019-04-21T22:05:53.532Z,25.70
2019-04-21T22:08:16.417Z,25.70
2019-04-21T22:10:45.767Z,25.70
2019-04-21T22:13:20.022Z,25.70
2019-04-21T22:15:49.430Z,25.70
2019-04-21T22:18:34.644Z,25.70
2019-04-21T22:21:06.581Z,25.70
2019-04-21T22:23:32.438Z,25.70
2019-04-21T22:25:51.419Z,25.70
2019-04-21T22:28:22.022Z,25.70
2019-04-21T22:30:53.356Z,25.70
2019-04-21T22:33:23.324Z,25.70
2019-04-21T22:35:59.223Z,25.70
2019-04-21T22:38:38.087Z,25.70
2019-04-21T22:41:08.851Z,25.70
2019-04-21T22:43:32.492Z,25.60
2019-04-21T22:45:56.185Z,25.60
2019-04-21T22:48:28.564Z,25.60
2019-04-21T22:50:58.300Z,25.60
2019-04-21T22:53:34.683Z,25.60
2019-04-21T22:56:05.804Z,25.60
2019-04-21T22:58:33.976Z,25.60
2019-04-21T23:01:03.799Z,25.60
2019-04-21T23:03:32.573Z,25.60
2019-04-21T23:06:09.708Z,25.60
2019-04-21T23:08:38.435Z,25.60
2019-04-21T23:11:09.916Z,25.60
2019-04-21T23:13:36.305Z,25.60
2019-04-21T23:16:07.593Z,25.60
2019-04-21T23:18:53.590Z,25.60
2019-04-21T23:21:23.070Z,25.60
2019-04-21T23:23:57.194Z,25.60
2019-04-21T23:26:26.413Z,25.60
2019-04-21T23:29:03.013Z,25.60
2019-04-21T23:31:34.193Z,25.60
2019-04-21T23:33:42.217Z,25.60
2019-04-21T23:36:17.010Z,25.60
2019-04-21T23:38:46.230Z,25.60
2019-04-21T23:41:13.211Z,25.60
2019-04-21T23:43:44.831Z,25.60
2019-04-21T23:46:22.033Z,25.50
2019-04-21T23:49:02.442Z,25.60
2019-04-21T23:51:30.125Z,25.50
2019-04-21T23:53:49.156Z,25.50
2019-04-21T23:56:21.808Z,25.50
2019-04-21T23:58:54.943Z,25.60
